sensor_id;sensor_type;location;lat;lon;timestamp;P1;durP1;ratioP1;P2;durP2;ratioP2
34541;SDS011;20784;51.332;12.410;2023-12-14T00:02:12;17.77;;;10.23;;
34541;SDS011;20784;51.332;12.410;2023-12-14T00:04:40;19.42;;;10.70;;
34541;SDS011;20784;51.332;12.410;2023-12-14T00:07:06;19.08;;;12.10;;
34541;SDS011;20784;51.332;12.410;2023-12-14T00:09:32;26.25;;;12.77;;
34541;SDS011;20784;51.332;12.410;2023-12-14T00:11:58;24.52;;;12.88;;
34541;SDS011;20784;51.332;12.410;2023-12-14T00:14:26;21.65;;;13.52;;
34541;SDS011;20784;51.332;12.410;2023-12-14T00:16:52;20.77;;;13.70;;
34541;SDS011;20784;51.332;12.410;2023-12-14T00:19:20;23.48;;;14.68;;
34541;SDS011;20784;51.332;12.410;2023-12-14T00:21:49;22.58;;;15.15;;
34541;SDS011;20784;51.332;12.410;2023-12-14T00:24:19;25.67;;;14.80;;
34541;SDS011;20784;51.332;12.410;2023-12-14T00:26:47;26.85;;;15.68;;
34541;SDS011;20784;51.332;12.410;2023-12-14T00:29:12;29.52;;;16.02;;
34541;SDS011;20784;51.332;12.410;2023-12-14T00:31:38;23.65;;;15.13;;
34541;SDS011;20784;51.332;12.410;2023-12-14T00:34:03;30.60;;;16.05;;
34541;SDS011;20784;51.332;12.410;2023-12-14T00:36:32;22.33;;;13.68;;
34541;SDS011;20784;51.332;12.410;2023-12-14T00:38:58;28.00;;;16.67;;
34541;SDS011;20784;51.332;12.410;2023-12-14T00:41:26;30.23;;;15.65;;
34541;SDS011;20784;51.332;12.410;2023-12-14T00:43:52;31.20;;;15.57;;
34541;SDS011;20784;51.332;12.410;2023-12-14T00:46:18;26.27;;;14.77;;
34541;SDS011;20784;51.332;12.410;2023-12-14T00:48:43;25.90;;;15.00;;
34541;SDS011;20784;51.332;12.410;2023-12-14T00:51:09;28.98;;;14.95;;
34541;SDS011;20784;51.332;12.410;2023-12-14T00:53:35;32.20;;;15.98;;
34541;SDS011;20784;51.332;12.410;2023-12-14T00:56:00;29.25;;;15.30;;
34541;SDS011;20784;51.332;12.410;2023-12-14T00:58:28;30.83;;;15.27;;
34541;SDS011;20784;51.332;12.410;2023-12-14T01:00:54;26.88;;;14.63;;
34541;SDS011;20784;51.332;12.410;2023-12-14T01:03:20;30.63;;;14.35;;
34541;SDS011;20784;51.332;12.410;2023-12-14T01:05:48;27.48;;;15.05;;
34541;SDS011;20784;51.332;12.410;2023-12-14T01:08:14;26.60;;;13.70;;
34541;SDS011;20784;51.332;12.410;2023-12-14T01:10:40;29.90;;;13.80;;
34541;SDS011;20784;51.332;12.410;2023-12-14T01:13:08;28.17;;;14.05;;
34541;SDS011;20784;51.332;12.410;2023-12-14T01:15:36;25.88;;;13.90;;
34541;SDS011;20784;51.332;12.410;2023-12-14T01:18:01;29.88;;;14.75;;
34541;SDS011;20784;51.332;12.410;2023-12-14T01:20:27;28.60;;;14.05;;
34541;SDS011;20784;51.332;12.410;2023-12-14T01:22:54;23.98;;;12.68;;
34541;SDS011;20784;51.332;12.410;2023-12-14T01:25:19;25.13;;;13.10;;
34541;SDS011;20784;51.332;12.410;2023-12-14T01:27:52;29.20;;;13.35;;
34541;SDS011;20784;51.332;12.410;2023-12-14T01:30:18;26.83;;;13.70;;
34541;SDS011;20784;51.332;12.410;2023-12-14T01:32:44;27.83;;;13.70;;
34541;SDS011;20784;51.332;12.410;2023-12-14T01:35:09;22.98;;;12.20;;
34541;SDS011;20784;51.332;12.410;2023-12-14T01:37:35;24.38;;;12.52;;
34541;SDS011;20784;51.332;12.410;2023-12-14T01:40:01;27.98;;;13.40;;
34541;SDS011;20784;51.332;12.410;2023-12-14T01:42:26;25.70;;;13.52;;
34541;SDS011;20784;51.332;12.410;2023-12-14T01:44:52;24.17;;;12.80;;
34541;SDS011;20784;51.332;12.410;2023-12-14T01:47:18;26.52;;;14.55;;
34541;SDS011;20784;51.332;12.410;2023-12-14T01:49:44;23.10;;;13.55;;
34541;SDS011;20784;51.332;12.410;2023-12-14T01:52:10;26.10;;;12.68;;
34541;SDS011;20784;51.332;12.410;2023-12-14T01:54:35;28.70;;;13.07;;
34541;SDS011;20784;51.332;12.410;2023-12-14T01:57:01;20.63;;;12.18;;
34541;SDS011;20784;51.332;12.410;2023-12-14T01:59:29;25.42;;;12.90;;
34541;SDS011;20784;51.332;12.410;2023-12-14T02:01:55;22.60;;;11.50;;
34541;SDS011;20784;51.332;12.410;2023-12-14T02:04:23;23.60;;;12.52;;
34541;SDS011;20784;51.332;12.410;2023-12-14T02:06:50;23.73;;;12.57;;
34541;SDS011;20784;51.332;12.410;2023-12-14T02:09:16;20.10;;;11.65;;
34541;SDS011;20784;51.332;12.410;2023-12-14T02:11:41;25.25;;;11.30;;
34541;SDS011;20784;51.332;12.410;2023-12-14T02:14:12;30.10;;;12.68;;
34541;SDS011;20784;51.332;12.410;2023-12-14T02:16:37;27.75;;;13.25;;
34541;SDS011;20784;51.332;12.410;2023-12-14T02:19:04;25.15;;;12.27;;
34541;SDS011;20784;51.332;12.410;2023-12-14T02:21:32;31.58;;;14.10;;
34541;SDS011;20784;51.332;12.410;2023-12-14T02:23:58;25.00;;;13.45;;
34541;SDS011;20784;51.332;12.410;2023-12-14T02:26:23;26.08;;;12.77;;
34541;SDS011;20784;51.332;12.410;2023-12-14T02:28:49;25.02;;;13.20;;
34541;SDS011;20784;51.332;12.410;2023-12-14T02:31:15;31.15;;;14.57;;
34541;SDS011;20784;51.332;12.410;2023-12-14T02:33:43;28.50;;;15.20;;
34541;SDS011;20784;51.332;12.410;2023-12-14T02:36:09;44.67;;;14.80;;
34541;SDS011;20784;51.332;12.410;2023-12-14T02:38:38;35.15;;;14.40;;
34541;SDS011;20784;51.332;12.410;2023-12-14T02:41:06;27.45;;;13.90;;
34541;SDS011;20784;51.332;12.410;2023-12-14T02:43:34;28.10;;;13.02;;
34541;SDS011;20784;51.332;12.410;2023-12-14T02:46:07;35.70;;;15.15;;
34541;SDS011;20784;51.332;12.410;2023-12-14T02:48:36;32.58;;;13.27;;
34541;SDS011;20784;51.332;12.410;2023-12-14T02:51:01;26.70;;;13.40;;
34541;SDS011;20784;51.332;12.410;2023-12-14T02:53:30;37.60;;;14.05;;
34541;SDS011;20784;51.332;12.410;2023-12-14T02:56:01;22.70;;;12.70;;
34541;SDS011;20784;51.332;12.410;2023-12-14T02:58:27;30.30;;;14.65;;
34541;SDS011;20784;51.332;12.410;2023-12-14T03:00:53;25.23;;;12.27;;
34541;SDS011;20784;51.332;12.410;2023-12-14T03:03:19;36.60;;;11.77;;
34541;SDS011;20784;51.332;12.410;2023-12-14T03:05:44;26.35;;;12.13;;
34541;SDS011;20784;51.332;12.410;2023-12-14T03:08:11;33.17;;;12.32;;
34541;SDS011;20784;51.332;12.410;2023-12-14T03:10:39;30.25;;;11.35;;
34541;SDS011;20784;51.332;12.410;2023-12-14T03:13:12;25.25;;;11.88;;
34541;SDS011;20784;51.332;12.410;2023-12-14T03:15:38;22.40;;;11.60;;
34541;SDS011;20784;51.332;12.410;2023-12-14T03:18:04;21.42;;;11.15;;
34541;SDS011;20784;51.332;12.410;2023-12-14T03:20:47;22.27;;;10.50;;
34541;SDS011;20784;51.332;12.410;2023-12-14T03:23:13;25.13;;;10.10;;
34541;SDS011;20784;51.332;12.410;2023-12-14T03:25:39;32.38;;;11.80;;
34541;SDS011;20784;51.332;12.410;2023-12-14T03:28:04;26.75;;;11.10;;
34541;SDS011;20784;51.332;12.410;2023-12-14T03:30:37;25.77;;;10.00;;
34541;SDS011;20784;51.332;12.410;2023-12-14T03:33:05;19.40;;;10.43;;
34541;SDS011;20784;51.332;12.410;2023-12-14T03:35:33;19.95;;;10.00;;
34541;SDS011;20784;51.332;12.410;2023-12-14T03:38:04;28.40;;;10.43;;
34541;SDS011;20784;51.332;12.410;2023-12-14T03:40:30;21.35;;;10.13;;
34541;SDS011;20784;51.332;12.410;2023-12-14T03:42:58;20.17;;;9.98;;
34541;SDS011;20784;51.332;12.410;2023-12-14T03:45:30;20.55;;;10.25;;
34541;SDS011;20784;51.332;12.410;2023-12-14T03:47:56;21.85;;;10.52;;
34541;SDS011;20784;51.332;12.410;2023-12-14T03:50:29;21.95;;;10.57;;
34541;SDS011;20784;51.332;12.410;2023-12-14T03:52:57;18.30;;;9.27;;
34541;SDS011;20784;51.332;12.410;2023-12-14T03:55:52;18.48;;;9.45;;
34541;SDS011;20784;51.332;12.410;2023-12-14T03:58:19;20.45;;;9.52;;
34541;SDS011;20784;51.332;12.410;2023-12-14T04:00:47;21.65;;;10.38;;
34541;SDS011;20784;51.332;12.410;2023-12-14T04:03:18;20.73;;;9.40;;
34541;SDS011;20784;51.332;12.410;2023-12-14T04:05:46;17.38;;;8.48;;
34541;SDS011;20784;51.332;12.410;2023-12-14T04:08:16;17.50;;;9.02;;
34541;SDS011;20784;51.332;12.410;2023-12-14T04:10:42;19.67;;;10.05;;
34541;SDS011;20784;51.332;12.410;2023-12-14T04:13:08;17.13;;;9.63;;
34541;SDS011;20784;51.332;12.410;2023-12-14T04:15:33;23.75;;;10.57;;
34541;SDS011;20784;51.332;12.410;2023-12-14T04:17:59;21.23;;;10.43;;
34541;SDS011;20784;51.332;12.410;2023-12-14T04:20:24;19.85;;;9.60;;
34541;SDS011;20784;51.332;12.410;2023-12-14T04:22:56;20.33;;;10.77;;
34541;SDS011;20784;51.332;12.410;2023-12-14T04:25:22;18.58;;;9.82;;
34541;SDS011;20784;51.332;12.410;2023-12-14T04:27:51;20.77;;;11.07;;
34541;SDS011;20784;51.332;12.410;2023-12-14T04:30:19;23.20;;;11.70;;
34541;SDS011;20784;51.332;12.410;2023-12-14T04:32:52;22.02;;;11.77;;
34541;SDS011;20784;51.332;12.410;2023-12-14T04:35:18;22.42;;;12.10;;
34541;SDS011;20784;51.332;12.410;2023-12-14T04:37:47;26.58;;;12.68;;
34541;SDS011;20784;51.332;12.410;2023-12-14T04:40:15;20.83;;;10.93;;
34541;SDS011;20784;51.332;12.410;2023-12-14T04:42:40;22.33;;;12.07;;
34541;SDS011;20784;51.332;12.410;2023-12-14T04:45:06;23.33;;;12.38;;
34541;SDS011;20784;51.332;12.410;2023-12-14T04:47:34;24.77;;;12.02;;
34541;SDS011;20784;51.332;12.410;2023-12-14T04:50:02;22.90;;;11.52;;
34541;SDS011;20784;51.332;12.410;2023-12-14T04:52:28;25.83;;;12.68;;
34541;SDS011;20784;51.332;12.410;2023-12-14T04:54:54;24.05;;;12.70;;
34541;SDS011;20784;51.332;12.410;2023-12-14T04:57:20;24.92;;;13.15;;
34541;SDS011;20784;51.332;12.410;2023-12-14T04:59:48;26.17;;;11.90;;
34541;SDS011;20784;51.332;12.410;2023-12-14T05:02:13;20.15;;;10.75;;
34541;SDS011;20784;51.332;12.410;2023-12-14T05:04:39;18.10;;;9.52;;
34541;SDS011;20784;51.332;12.410;2023-12-14T05:07:05;15.43;;;9.13;;
34541;SDS011;20784;51.332;12.410;2023-12-14T05:09:33;15.57;;;9.07;;
34541;SDS011;20784;51.332;12.410;2023-12-14T05:11:59;17.40;;;10.35;;
34541;SDS011;20784;51.332;12.410;2023-12-14T05:14:24;15.85;;;9.90;;
34541;SDS011;20784;51.332;12.410;2023-12-14T05:16:52;17.00;;;9.45;;
34541;SDS011;20784;51.332;12.410;2023-12-14T05:19:18;14.90;;;9.63;;
34541;SDS011;20784;51.332;12.410;2023-12-14T05:21:43;18.67;;;9.68;;
34541;SDS011;20784;51.332;12.410;2023-12-14T05:24:09;16.15;;;9.48;;
34541;SDS011;20784;51.332;12.410;2023-12-14T05:26:35;15.27;;;9.82;;
34541;SDS011;20784;51.332;12.410;2023-12-14T05:29:01;14.88;;;8.77;;
34541;SDS011;20784;51.332;12.410;2023-12-14T05:31:26;13.90;;;8.60;;
34541;SDS011;20784;51.332;12.410;2023-12-14T05:33:54;14.52;;;8.65;;
34541;SDS011;20784;51.332;12.410;2023-12-14T05:36:20;13.77;;;8.45;;
34541;SDS011;20784;51.332;12.410;2023-12-14T05:38:46;13.10;;;8.02;;
34541;SDS011;20784;51.332;12.410;2023-12-14T05:41:14;14.93;;;8.10;;
34541;SDS011;20784;51.332;12.410;2023-12-14T05:43:40;13.50;;;7.38;;
34541;SDS011;20784;51.332;12.410;2023-12-14T05:46:06;13.13;;;7.60;;
34541;SDS011;20784;51.332;12.410;2023-12-14T05:48:35;14.43;;;8.07;;
34541;SDS011;20784;51.332;12.410;2023-12-14T05:51:02;13.07;;;8.13;;
34541;SDS011;20784;51.332;12.410;2023-12-14T05:53:28;15.70;;;8.27;;
34541;SDS011;20784;51.332;12.410;2023-12-14T05:55:59;16.85;;;9.05;;
34541;SDS011;20784;51.332;12.410;2023-12-14T05:58:32;13.27;;;8.15;;
34541;SDS011;20784;51.332;12.410;2023-12-14T06:00:58;15.65;;;9.10;;
34541;SDS011;20784;51.332;12.410;2023-12-14T06:03:34;16.88;;;9.52;;
34541;SDS011;20784;51.332;12.410;2023-12-14T06:06:09;18.30;;;10.18;;
34541;SDS011;20784;51.332;12.410;2023-12-14T06:08:43;14.43;;;9.18;;
34541;SDS011;20784;51.332;12.410;2023-12-14T06:11:39;13.90;;;9.13;;
34541;SDS011;20784;51.332;12.410;2023-12-14T06:14:04;16.50;;;9.65;;
34541;SDS011;20784;51.332;12.410;2023-12-14T06:16:33;29.13;;;9.40;;
34541;SDS011;20784;51.332;12.410;2023-12-14T06:18:59;22.92;;;9.60;;
34541;SDS011;20784;51.332;12.410;2023-12-14T06:21:24;26.23;;;8.43;;
34541;SDS011;20784;51.332;12.410;2023-12-14T06:23:53;13.02;;;7.72;;
34541;SDS011;20784;51.332;12.410;2023-12-14T06:26:19;10.35;;;7.28;;
34541;SDS011;20784;51.332;12.410;2023-12-14T06:28:44;13.25;;;7.53;;
34541;SDS011;20784;51.332;12.410;2023-12-14T06:31:13;13.52;;;8.20;;
34541;SDS011;20784;51.332;12.410;2023-12-14T06:33:40;16.85;;;7.82;;
34541;SDS011;20784;51.332;12.410;2023-12-14T06:36:12;17.90;;;8.48;;
34541;SDS011;20784;51.332;12.410;2023-12-14T06:38:38;23.05;;;7.75;;
34541;SDS011;20784;51.332;12.410;2023-12-14T06:41:05;27.55;;;8.68;;
34541;SDS011;20784;51.332;12.410;2023-12-14T06:43:31;17.45;;;8.65;;
34541;SDS011;20784;51.332;12.410;2023-12-14T06:45:57;21.25;;;9.10;;
34541;SDS011;20784;51.332;12.410;2023-12-14T06:48:33;15.98;;;9.07;;
34541;SDS011;20784;51.332;12.410;2023-12-14T06:51:09;16.27;;;9.40;;
34541;SDS011;20784;51.332;12.410;2023-12-14T06:53:41;15.85;;;9.25;;
34541;SDS011;20784;51.332;12.410;2023-12-14T06:56:12;18.27;;;9.80;;
34541;SDS011;20784;51.332;12.410;2023-12-14T06:58:39;34.55;;;10.77;;
34541;SDS011;20784;51.332;12.410;2023-12-14T07:01:05;26.73;;;10.25;;
34541;SDS011;20784;51.332;12.410;2023-12-14T07:03:40;21.10;;;10.45;;
34541;SDS011;20784;51.332;12.410;2023-12-14T07:06:27;18.63;;;10.18;;
34541;SDS011;20784;51.332;12.410;2023-12-14T07:09:00;21.33;;;10.90;;
34541;SDS011;20784;51.332;12.410;2023-12-14T07:11:32;19.13;;;10.52;;
34541;SDS011;20784;51.332;12.410;2023-12-14T07:14:01;20.08;;;11.40;;
34541;SDS011;20784;51.332;12.410;2023-12-14T07:16:29;20.10;;;10.25;;
34541;SDS011;20784;51.332;12.410;2023-12-14T07:19:00;16.05;;;9.65;;
34541;SDS011;20784;51.332;12.410;2023-12-14T07:21:38;19.80;;;11.05;;
34541;SDS011;20784;51.332;12.410;2023-12-14T07:24:07;23.20;;;10.93;;
34541;SDS011;20784;51.332;12.410;2023-12-14T07:26:37;16.55;;;9.88;;
34541;SDS011;20784;51.332;12.410;2023-12-14T07:29:03;20.17;;;9.90;;
34541;SDS011;20784;51.332;12.410;2023-12-14T07:31:29;16.95;;;9.68;;
34541;SDS011;20784;51.332;12.410;2023-12-14T07:33:55;22.42;;;9.20;;
34541;SDS011;20784;51.332;12.410;2023-12-14T07:36:21;16.13;;;8.75;;
34541;SDS011;20784;51.332;12.410;2023-12-14T07:38:47;33.25;;;8.50;;
34541;SDS011;20784;51.332;12.410;2023-12-14T07:41:16;14.85;;;7.97;;
34541;SDS011;20784;51.332;12.410;2023-12-14T07:43:52;13.85;;;8.40;;
34541;SDS011;20784;51.332;12.410;2023-12-14T07:46:29;15.35;;;9.50;;
34541;SDS011;20784;51.332;12.410;2023-12-14T07:49:00;21.63;;;10.47;;
34541;SDS011;20784;51.332;12.410;2023-12-14T07:51:33;18.75;;;11.50;;
34541;SDS011;20784;51.332;12.410;2023-12-14T07:54:05;17.05;;;10.30;;
34541;SDS011;20784;51.332;12.410;2023-12-14T07:56:30;29.15;;;12.05;;
34541;SDS011;20784;51.332;12.410;2023-12-14T07:59:00;34.35;;;11.85;;
34541;SDS011;20784;51.332;12.410;2023-12-14T08:01:25;21.33;;;11.50;;
34541;SDS011;20784;51.332;12.410;2023-12-14T08:03:51;19.58;;;12.15;;
34541;SDS011;20784;51.332;12.410;2023-12-14T08:06:17;21.15;;;10.85;;
34541;SDS011;20784;51.332;12.410;2023-12-14T08:08:45;20.23;;;11.98;;
34541;SDS011;20784;51.332;12.410;2023-12-14T08:11:14;18.65;;;11.15;;
34541;SDS011;20784;51.332;12.410;2023-12-14T08:13:40;18.05;;;10.88;;
34541;SDS011;20784;51.332;12.410;2023-12-14T08:16:07;22.00;;;11.18;;
34541;SDS011;20784;51.332;12.410;2023-12-14T08:18:33;20.42;;;11.25;;
34541;SDS011;20784;51.332;12.410;2023-12-14T08:20:58;18.13;;;10.85;;
34541;SDS011;20784;51.332;12.410;2023-12-14T08:23:24;16.58;;;10.40;;
34541;SDS011;20784;51.332;12.410;2023-12-14T08:25:52;19.92;;;11.40;;
34541;SDS011;20784;51.332;12.410;2023-12-14T08:28:22;20.67;;;10.77;;
34541;SDS011;20784;51.332;12.410;2023-12-14T08:30:56;22.50;;;12.40;;
34541;SDS011;20784;51.332;12.410;2023-12-14T08:33:28;21.35;;;12.10;;
34541;SDS011;20784;51.332;12.410;2023-12-14T08:35:54;18.27;;;11.13;;
34541;SDS011;20784;51.332;12.410;2023-12-14T08:38:30;19.67;;;11.00;;
34541;SDS011;20784;51.332;12.410;2023-12-14T08:41:01;17.35;;;10.48;;
34541;SDS011;20784;51.332;12.410;2023-12-14T08:43:27;15.48;;;9.98;;
34541;SDS011;20784;51.332;12.410;2023-12-14T08:45:53;17.52;;;10.35;;
34541;SDS011;20784;51.332;12.410;2023-12-14T08:48:28;18.92;;;9.73;;
34541;SDS011;20784;51.332;12.410;2023-12-14T08:50:59;16.73;;;10.32;;
34541;SDS011;20784;51.332;12.410;2023-12-14T08:53:24;17.20;;;9.45;;
34541;SDS011;20784;51.332;12.410;2023-12-14T08:55:53;16.23;;;10.07;;
34541;SDS011;20784;51.332;12.410;2023-12-14T08:58:19;14.93;;;9.80;;
34541;SDS011;20784;51.332;12.410;2023-12-14T09:00:45;15.23;;;9.95;;
34541;SDS011;20784;51.332;12.410;2023-12-14T09:03:14;16.80;;;9.43;;
34541;SDS011;20784;51.332;12.410;2023-12-14T09:05:40;15.18;;;8.98;;
34541;SDS011;20784;51.332;12.410;2023-12-14T09:08:08;15.63;;;10.13;;
34541;SDS011;20784;51.332;12.410;2023-12-14T09:10:34;20.10;;;11.20;;
34541;SDS011;20784;51.332;12.410;2023-12-14T09:13:02;19.10;;;11.90;;
34541;SDS011;20784;51.332;12.410;2023-12-14T09:15:30;18.85;;;11.63;;
34541;SDS011;20784;51.332;12.410;2023-12-14T09:18:01;22.27;;;13.18;;
34541;SDS011;20784;51.332;12.410;2023-12-14T09:20:27;26.15;;;14.25;;
34541;SDS011;20784;51.332;12.410;2023-12-14T09:22:59;21.35;;;13.02;;
34541;SDS011;20784;51.332;12.410;2023-12-14T09:25:24;22.90;;;13.23;;
34541;SDS011;20784;51.332;12.410;2023-12-14T09:27:50;23.13;;;12.07;;
34541;SDS011;20784;51.332;12.410;2023-12-14T09:30:16;21.50;;;13.32;;
34541;SDS011;20784;51.332;12.410;2023-12-14T09:32:42;20.13;;;12.20;;
34541;SDS011;20784;51.332;12.410;2023-12-14T09:35:08;18.13;;;11.45;;
34541;SDS011;20784;51.332;12.410;2023-12-14T09:37:36;19.35;;;11.75;;
34541;SDS011;20784;51.332;12.410;2023-12-14T09:40:02;15.68;;;10.15;;
34541;SDS011;20784;51.332;12.410;2023-12-14T09:42:28;15.55;;;10.13;;
34541;SDS011;20784;51.332;12.410;2023-12-14T09:45:01;14.52;;;8.73;;
34541;SDS011;20784;51.332;12.410;2023-12-14T09:47:27;12.63;;;8.13;;
34541;SDS011;20784;51.332;12.410;2023-12-14T09:49:53;12.82;;;7.25;;
34541;SDS011;20784;51.332;12.410;2023-12-14T09:52:18;11.38;;;6.60;;
34541;SDS011;20784;51.332;12.410;2023-12-14T09:54:44;13.35;;;7.10;;
34541;SDS011;20784;51.332;12.410;2023-12-14T09:57:12;25.88;;;6.88;;
34541;SDS011;20784;51.332;12.410;2023-12-14T09:59:37;15.13;;;6.95;;
34541;SDS011;20784;51.332;12.410;2023-12-14T10:02:10;12.30;;;6.32;;
34541;SDS011;20784;51.332;12.410;2023-12-14T10:04:36;22.70;;;7.53;;
34541;SDS011;20784;51.332;12.410;2023-12-14T10:10:19;14.15;;;9.05;;
34541;SDS011;20784;51.332;12.410;2023-12-14T10:13:17;23.60;;;9.52;;
34541;SDS011;20784;51.332;12.410;2023-12-14T10:16:01;17.80;;;9.73;;
34541;SDS011;20784;51.332;12.410;2023-12-14T10:18:29;12.80;;;8.40;;
34541;SDS011;20784;51.332;12.410;2023-12-14T10:20:59;17.35;;;9.07;;
34541;SDS011;20784;51.332;12.410;2023-12-14T10:23:33;14.07;;;7.40;;
34541;SDS011;20784;51.332;12.410;2023-12-14T10:26:00;14.63;;;7.15;;
34541;SDS011;20784;51.332;12.410;2023-12-14T10:28:26;10.00;;;7.10;;
34541;SDS011;20784;51.332;12.410;2023-12-14T10:31:01;10.50;;;6.60;;
34541;SDS011;20784;51.332;12.410;2023-12-14T10:33:30;8.48;;;5.53;;
34541;SDS011;20784;51.332;12.410;2023-12-14T10:36:11;8.13;;;6.43;;
34541;SDS011;20784;51.332;12.410;2023-12-14T10:38:52;11.75;;;6.93;;
34541;SDS011;20784;51.332;12.410;2023-12-14T10:43:53;8.25;;;6.15;;
34541;SDS011;20784;51.332;12.410;2023-12-14T10:46:20;11.10;;;6.78;;
34541;SDS011;20784;51.332;12.410;2023-12-14T10:48:49;15.13;;;6.38;;
34541;SDS011;20784;51.332;12.410;2023-12-14T10:51:20;9.48;;;5.97;;
34541;SDS011;20784;51.332;12.410;2023-12-14T10:56:18;13.82;;;5.53;;
34541;SDS011;20784;51.332;12.410;2023-12-14T10:58:57;16.92;;;6.43;;
34541;SDS011;20784;51.332;12.410;2023-12-14T11:01:25;19.17;;;6.63;;
34541;SDS011;20784;51.332;12.410;2023-12-14T11:03:55;11.43;;;5.07;;
34541;SDS011;20784;51.332;12.410;2023-12-14T11:06:26;24.38;;;6.32;;
34541;SDS011;20784;51.332;12.410;2023-12-14T11:08:56;11.85;;;7.03;;
34541;SDS011;20784;51.332;12.410;2023-12-14T11:11:59;10.32;;;5.97;;
34541;SDS011;20784;51.332;12.410;2023-12-14T11:21:02;15.07;;;7.82;;
34541;SDS011;20784;51.332;12.410;2023-12-14T11:24:09;12.32;;;8.05;;
34541;SDS011;20784;51.332;12.410;2023-12-14T11:26:57;10.52;;;6.95;;
34541;SDS011;20784;51.332;12.410;2023-12-14T11:29:35;14.18;;;6.90;;
34541;SDS011;20784;51.332;12.410;2023-12-14T11:32:06;11.07;;;6.07;;
34541;SDS011;20784;51.332;12.410;2023-12-14T11:34:35;8.35;;;4.63;;
34541;SDS011;20784;51.332;12.410;2023-12-14T11:46:10;15.43;;;5.40;;
34541;SDS011;20784;51.332;12.410;2023-12-14T11:48:36;18.05;;;5.20;;
34541;SDS011;20784;51.332;12.410;2023-12-14T11:51:11;9.10;;;4.55;;
34541;SDS011;20784;51.332;12.410;2023-12-14T11:53:37;6.43;;;4.15;;
34541;SDS011;20784;51.332;12.410;2023-12-14T11:56:04;7.25;;;3.75;;
34541;SDS011;20784;51.332;12.410;2023-12-14T11:58:33;8.07;;;4.43;;
34541;SDS011;20784;51.332;12.410;2023-12-14T12:01:15;10.82;;;4.00;;
34541;SDS011;20784;51.332;12.410;2023-12-14T12:03:43;7.15;;;4.32;;
34541;SDS011;20784;51.332;12.410;2023-12-14T12:06:21;7.70;;;3.88;;
34541;SDS011;20784;51.332;12.410;2023-12-14T12:08:57;7.15;;;3.90;;
34541;SDS011;20784;51.332;12.410;2023-12-14T12:11:28;6.05;;;3.95;;
34541;SDS011;20784;51.332;12.410;2023-12-14T12:13:56;6.20;;;4.07;;
34541;SDS011;20784;51.332;12.410;2023-12-14T12:16:22;15.43;;;4.00;;
34541;SDS011;20784;51.332;12.410;2023-12-14T12:18:51;8.70;;;4.47;;
34541;SDS011;20784;51.332;12.410;2023-12-14T12:21:17;11.95;;;5.22;;
34541;SDS011;20784;51.332;12.410;2023-12-14T12:23:45;7.40;;;4.75;;
34541;SDS011;20784;51.332;12.410;2023-12-14T12:26:11;14.05;;;5.22;;
34541;SDS011;20784;51.332;12.410;2023-12-14T12:28:37;13.73;;;5.28;;
34541;SDS011;20784;51.332;12.410;2023-12-14T12:31:03;9.00;;;5.60;;
34541;SDS011;20784;51.332;12.410;2023-12-14T12:33:29;10.82;;;5.65;;
34541;SDS011;20784;51.332;12.410;2023-12-14T12:36:05;9.00;;;5.35;;
34541;SDS011;20784;51.332;12.410;2023-12-14T12:38:31;9.60;;;5.18;;
34541;SDS011;20784;51.332;12.410;2023-12-14T12:41:08;10.35;;;5.88;;
34541;SDS011;20784;51.332;12.410;2023-12-14T12:43:34;14.13;;;5.97;;
34541;SDS011;20784;51.332;12.410;2023-12-14T12:46:00;9.10;;;5.57;;
34541;SDS011;20784;51.332;12.410;2023-12-14T12:48:39;12.32;;;5.75;;
34541;SDS011;20784;51.332;12.410;2023-12-14T12:51:16;10.57;;;5.75;;
34541;SDS011;20784;51.332;12.410;2023-12-14T12:53:42;12.98;;;6.10;;
34541;SDS011;20784;51.332;12.410;2023-12-14T12:56:16;8.50;;;5.80;;
34541;SDS011;20784;51.332;12.410;2023-12-14T13:01:42;10.20;;;6.15;;
34541;SDS011;20784;51.332;12.410;2023-12-14T13:04:19;9.98;;;6.30;;
34541;SDS011;20784;51.332;12.410;2023-12-14T13:06:47;13.40;;;6.40;;
34541;SDS011;20784;51.332;12.410;2023-12-14T13:09:14;8.18;;;5.65;;
34541;SDS011;20784;51.332;12.410;2023-12-14T13:11:45;9.85;;;6.60;;
34541;SDS011;20784;51.332;12.410;2023-12-14T13:14:11;10.80;;;5.60;;
34541;SDS011;20784;51.332;12.410;2023-12-14T13:16:38;7.20;;;4.97;;
34541;SDS011;20784;51.332;12.410;2023-12-14T13:19:08;7.47;;;4.80;;
34541;SDS011;20784;51.332;12.410;2023-12-14T13:21:36;6.70;;;4.35;;
34541;SDS011;20784;51.332;12.410;2023-12-14T13:24:02;5.63;;;4.57;;
34541;SDS011;20784;51.332;12.410;2023-12-14T13:26:29;5.90;;;4.07;;
34541;SDS011;20784;51.332;12.410;2023-12-14T13:28:57;7.95;;;3.80;;
34541;SDS011;20784;51.332;12.410;2023-12-14T13:31:49;6.47;;;3.95;;
34541;SDS011;20784;51.332;12.410;2023-12-14T13:34:31;4.95;;;4.00;;
34541;SDS011;20784;51.332;12.410;2023-12-14T13:36:59;6.97;;;4.10;;
34541;SDS011;20784;51.332;12.410;2023-12-14T13:39:37;6.93;;;3.92;;
34541;SDS011;20784;51.332;12.410;2023-12-14T13:42:20;6.65;;;3.90;;
34541;SDS011;20784;51.332;12.410;2023-12-14T13:44:46;6.00;;;4.13;;
34541;SDS011;20784;51.332;12.410;2023-12-14T13:47:12;8.32;;;4.20;;
34541;SDS011;20784;51.332;12.410;2023-12-14T13:49:38;6.85;;;4.30;;
34541;SDS011;20784;51.332;12.410;2023-12-14T13:52:04;5.85;;;3.78;;
34541;SDS011;20784;51.332;12.410;2023-12-14T13:54:30;8.80;;;4.35;;
34541;SDS011;20784;51.332;12.410;2023-12-14T13:56:59;9.52;;;4.65;;
34541;SDS011;20784;51.332;12.410;2023-12-14T13:59:28;7.22;;;4.13;;
34541;SDS011;20784;51.332;12.410;2023-12-14T14:01:56;8.63;;;4.70;;
34541;SDS011;20784;51.332;12.410;2023-12-14T14:04:25;10.00;;;4.35;;
34541;SDS011;20784;51.332;12.410;2023-12-14T14:06:56;13.27;;;4.63;;
34541;SDS011;20784;51.332;12.410;2023-12-14T14:09:22;8.88;;;4.72;;
34541;SDS011;20784;51.332;12.410;2023-12-14T14:11:50;8.60;;;4.57;;
34541;SDS011;20784;51.332;12.410;2023-12-14T14:14:16;6.72;;;4.22;;
34541;SDS011;20784;51.332;12.410;2023-12-14T14:16:42;6.45;;;4.50;;
34541;SDS011;20784;51.332;12.410;2023-12-14T14:19:07;7.78;;;4.75;;
34541;SDS011;20784;51.332;12.410;2023-12-14T14:21:33;9.27;;;5.03;;
34541;SDS011;20784;51.332;12.410;2023-12-14T14:26:48;12.15;;;5.88;;
34541;SDS011;20784;51.332;12.410;2023-12-14T14:29:17;11.90;;;6.60;;
34541;SDS011;20784;51.332;12.410;2023-12-14T14:31:43;10.82;;;6.55;;
34541;SDS011;20784;51.332;12.410;2023-12-14T14:34:15;11.65;;;7.05;;
34541;SDS011;20784;51.332;12.410;2023-12-14T14:36:51;14.23;;;7.75;;
34541;SDS011;20784;51.332;12.410;2023-12-14T14:39:26;18.65;;;7.60;;
34541;SDS011;20784;51.332;12.410;2023-12-14T14:42:13;13.90;;;7.50;;
34541;SDS011;20784;51.332;12.410;2023-12-14T14:47:42;14.40;;;9.40;;
34541;SDS011;20784;51.332;12.410;2023-12-14T14:51:02;18.35;;;9.63;;
34541;SDS011;20784;51.332;12.410;2023-12-14T14:53:44;14.32;;;8.23;;
34541;SDS011;20784;51.332;12.410;2023-12-14T14:56:39;16.58;;;8.48;;
34541;SDS011;20784;51.332;12.410;2023-12-14T14:59:24;17.08;;;8.90;;
34541;SDS011;20784;51.332;12.410;2023-12-14T15:05:20;15.15;;;9.38;;
34541;SDS011;20784;51.332;12.410;2023-12-14T15:11:16;18.70;;;9.98;;